createdAt,value
2019-06-10T00:05:30.500Z,4.07
2019-06-10T00:12:15.535Z,3.90
2019-06-10T00:19:02.905Z,3.40
2019-06-10T00:25:47.110Z,4.10
2019-06-10T00:32:32.158Z,3.50
2019-06-10T00:39:17.095Z,3.73
2019-06-10T00:46:04.153Z,3.77
2019-06-10T00:52:48.507Z,3.13
2019-06-10T00:59:33.363Z,3.40
2019-06-10T01:06:18.215Z,3.90
2019-06-10T01:13:03.444Z,3.60
2019-06-10T01:19:50.778Z,4.50
2019-06-10T01:26:35.079Z,4.62
2019-06-10T01:33:21.238Z,4.80
2019-06-10T01:40:07.951Z,5.03
2019-06-10T01:46:52.968Z,4.77
2019-06-10T01:53:38.039Z,4.00
2019-06-10T02:00:26.105Z,3.80
2019-06-10T02:07:13.849Z,4.20
2019-06-10T02:13:57.715Z,4.15
2019-06-10T02:20:42.580Z,4.33
2019-06-10T02:27:27.638Z,4.40
2019-06-10T02:34:17.157Z,5.13
2019-06-10T02:40:59.166Z,5.20
2019-06-10T02:47:45.172Z,5.07
2019-06-10T02:54:32.689Z,5.93
2019-06-10T03:01:18.828Z,5.57
2019-06-10T03:08:03.840Z,5.80
2019-06-10T03:14:52.607Z,5.80
2019-06-10T03:21:37.755Z,5.03
2019-06-10T03:28:24.201Z,5.13
2019-06-10T03:35:12.950Z,4.73
2019-06-10T03:41:56.219Z,4.53
2019-06-10T03:48:43.264Z,4.20
2019-06-10T03:55:29.096Z,4.40
2019-06-10T04:02:14.539Z,4.33
2019-06-10T04:08:59.635Z,5.10
2019-06-10T04:15:44.515Z,5.00
2019-06-10T04:22:29.378Z,5.17
2019-06-10T04:29:14.225Z,5.17
2019-06-10T04:35:59.192Z,4.97
2019-06-10T04:42:44.115Z,4.77
2019-06-10T04:49:29.830Z,4.83
2019-06-10T04:56:14.820Z,5.47
2019-06-10T05:02:59.682Z,6.43
2019-06-10T05:09:44.607Z,5.77
2019-06-10T05:16:32.195Z,5.22
2019-06-10T05:23:16.028Z,5.00
2019-06-10T05:30:02.326Z,5.30
2019-06-10T05:36:47.423Z,4.37
2019-06-10T05:43:34.291Z,4.33
2019-06-10T05:50:19.087Z,4.77
2019-06-10T05:57:04.145Z,5.13
2019-06-10T06:03:49.063Z,4.70
2019-06-10T06:10:36.004Z,4.70
2019-06-10T06:17:23.442Z,5.25
2019-06-10T06:24:07.691Z,4.60
2019-06-10T06:30:52.855Z,3.75
2019-06-10T06:37:39.500Z,4.35
2019-06-10T06:44:24.630Z,3.80
2019-06-10T06:51:09.498Z,3.83
2019-06-10T06:57:54.356Z,3.87
2019-06-10T07:04:40.391Z,3.62
2019-06-10T07:11:26.695Z,3.40
2019-06-10T07:18:12.998Z,3.70
2019-06-10T07:24:58.875Z,3.65
2019-06-10T07:31:46.659Z,4.42
2019-06-10T07:38:33.191Z,3.10
2019-06-10T07:45:18.007Z,3.40
2019-06-10T07:52:12.942Z,3.22
2019-06-10T07:58:49.479Z,3.10
2019-06-10T08:05:35.942Z,3.30
2019-06-10T08:12:23.114Z,3.40
2019-06-10T08:19:26.339Z,2.95
2019-06-10T08:25:57.607Z,3.20
2019-06-10T08:32:45.261Z,3.45
2019-06-10T08:39:28.397Z,3.47
2019-06-10T08:46:13.393Z,2.92
2019-06-10T08:53:12.760Z,3.50
2019-06-10T08:59:47.680Z,3.47
2019-06-10T09:06:32.994Z,3.80
2019-06-10T09:13:18.206Z,3.50
2019-06-10T09:20:05.229Z,3.30
2019-06-10T09:26:51.486Z,3.62
2019-06-10T09:33:36.703Z,3.47
2019-06-10T09:40:22.912Z,3.37
2019-06-10T09:47:08.514Z,3.10
2019-06-10T09:54:02.417Z,3.50
2019-06-10T10:00:49.385Z,3.42
2019-06-10T10:07:32.794Z,3.27
2019-06-10T10:14:18.708Z,3.10
2019-06-10T10:21:04.074Z,2.90
2019-06-10T10:27:51.330Z,2.52
2019-06-10T10:34:35.835Z,2.47
2019-06-10T10:41:23.234Z,3.25
2019-06-10T10:48:07.560Z,2.83
2019-06-10T10:54:54.301Z,2.65
2019-06-10T11:01:39.192Z,3.02
2019-06-10T11:08:24.046Z,2.40
2019-06-10T11:15:10.439Z,2.85
2019-06-10T11:21:55.299Z,2.47
2019-06-10T11:28:42.368Z,2.62
2019-06-10T11:35:28.233Z,3.12
2019-06-10T11:42:13.374Z,3.35
2019-06-10T11:48:59.110Z,2.98
2019-06-10T11:55:45.191Z,2.75
2019-06-10T12:02:30.124Z,2.70
2019-06-10T12:09:15.771Z,3.00
2019-06-10T12:17:05.785Z,2.75
2019-06-10T12:22:49.525Z,2.90
2019-06-10T12:29:33.962Z,3.35
2019-06-10T12:36:18.964Z,2.75
2019-06-10T12:43:06.788Z,2.92
2019-06-10T12:49:52.378Z,3.20
2019-06-10T12:56:37.217Z,2.53
2019-06-10T13:03:23.656Z,3.10
2019-06-10T13:10:12.112Z,3.30
2019-06-10T13:16:57.962Z,3.25
2019-06-10T13:23:43.623Z,3.67
2019-06-10T13:30:28.575Z,2.95
2019-06-10T13:37:16.119Z,3.33
2019-06-10T13:44:02.016Z,3.12
2019-06-10T13:50:47.430Z,3.70
2019-06-10T13:57:32.295Z,3.83
2019-06-10T14:04:21.814Z,2.85
2019-06-10T14:11:07.297Z,3.62
2019-06-10T14:17:52.706Z,3.37
2019-06-10T14:24:37.794Z,3.50
2019-06-10T14:31:39.069Z,3.45
2019-06-10T14:38:10.133Z,2.87
2019-06-10T14:44:57.110Z,4.58
2019-06-10T14:51:43.111Z,4.22
2019-06-10T14:58:28.158Z,4.62
2019-06-10T15:05:15.656Z,5.62
2019-06-10T15:12:02.671Z,4.47
2019-06-10T15:18:46.847Z,4.58
2019-06-10T15:25:48.631Z,4.47
2019-06-10T15:32:32.627Z,5.42
2019-06-10T15:39:08.921Z,4.05
2019-06-10T15:45:53.935Z,3.80
2019-06-10T15:52:38.796Z,5.05
2019-06-10T15:59:23.651Z,4.08
2019-06-10T16:06:08.523Z,4.33
2019-06-10T16:12:53.383Z,4.12
2019-06-10T16:19:38.252Z,3.72
2019-06-10T16:26:26.978Z,4.35
2019-06-10T16:33:13.189Z,4.92
2019-06-10T16:39:58.451Z,4.97
2019-06-10T16:46:44.434Z,6.60
2019-06-10T16:53:32.243Z,5.10
2019-06-10T17:00:18.390Z,4.87
2019-06-10T17:07:03.428Z,4.60
2019-06-10T17:13:49.356Z,4.70
2019-06-10T17:20:34.748Z,4.58
2019-06-10T17:27:22.293Z,4.87
2019-06-10T17:34:08.375Z,4.85
2019-06-10T17:40:53.373Z,4.42
2019-06-10T17:47:38.382Z,4.25
2019-06-10T17:54:24.079Z,5.25
2019-06-10T18:01:09.865Z,5.83
2019-06-10T18:07:54.805Z,5.10
2019-06-10T18:14:39.735Z,5.35
2019-06-10T18:21:24.594Z,4.80
2019-06-10T18:28:11.977Z,6.13
2019-06-10T18:34:56.748Z,6.58
2019-06-10T18:41:42.199Z,5.90
2019-06-10T18:48:29.031Z,7.37
2019-06-10T18:55:15.824Z,6.75
2019-06-10T19:02:05.980Z,6.20
2019-06-10T19:08:47.670Z,7.20
2019-06-10T19:15:33.625Z,7.35
2019-06-10T19:22:18.666Z,7.55
2019-06-10T19:29:03.909Z,7.70
2019-06-10T19:35:48.883Z,7.25
2019-06-10T19:42:35.376Z,7.47
2019-06-10T19:49:20.386Z,8.43
2019-06-10T19:56:05.316Z,6.95
2019-06-10T20:02:52.328Z,8.07
2019-06-10T20:09:38.036Z,8.73
2019-06-10T20:16:22.986Z,6.87
2019-06-10T20:23:08.927Z,7.40
2019-06-10T20:30:07.161Z,7.37
2019-06-10T20:36:43.775Z,7.60
2019-06-10T20:43:28.332Z,12.80
2019-06-10T20:50:14.071Z,6.70
2019-06-10T20:56:59.004Z,7.40
2019-06-10T21:03:47.040Z,7.72
2019-06-10T21:10:39.641Z,8.90
2019-06-10T21:17:24.778Z,8.50
2019-06-10T21:24:09.721Z,9.20
2019-06-10T21:30:58.677Z,11.15
2019-06-10T21:37:44.875Z,10.53
2019-06-10T21:44:28.157Z,10.77
2019-06-10T21:51:13.096Z,13.28
2019-06-10T21:58:03.643Z,11.77
2019-06-10T22:04:49.421Z,10.90
2019-06-10T22:11:34.338Z,11.68
2019-06-10T22:18:22.949Z,11.47
2019-06-10T22:25:08.910Z,11.00
2019-06-10T22:31:55.299Z,11.47
2019-06-10T22:38:41.661Z,11.63
2019-06-10T22:45:26.869Z,11.30
2019-06-10T22:52:12.600Z,10.57
2019-06-10T22:59:02.714Z,9.50
2019-06-10T23:05:48.165Z,10.97
2019-06-10T23:12:33.102Z,10.72
2019-06-10T23:19:18.043Z,9.65
2019-06-10T23:26:03.169Z,10.37
2019-06-10T23:32:48.126Z,7.50
2019-06-10T23:39:33.648Z,8.47
2019-06-10T23:46:18.759Z,8.93
2019-06-10T23:53:07.591Z,10.97
2019-06-10T23:59:52.463Z,14.30
